sensor_id;sensor_type;location;lat;lon;timestamp;P1;durP1;ratioP1;P2;durP2;ratioP2
21550;SDS011;10936;49.836;7.078;2023-04-20T05:00:47;7.97;;;4.90;;
21550;SDS011;10936;49.836;7.078;2023-04-20T05:03:13;9.33;;;5.57;;
21550;SDS011;10936;49.836;7.078;2023-04-20T05:05:38;12.27;;;5.47;;
21550;SDS011;10936;49.836;7.078;2023-04-20T05:08:04;8.30;;;5.00;;
21550;SDS011;10936;49.836;7.078;2023-04-20T05:10:30;8.60;;;5.33;;
21550;SDS011;10936;49.836;7.078;2023-04-20T05:12:55;8.47;;;5.03;;
21550;SDS011;10936;49.836;7.078;2023-04-20T05:15:22;10.23;;;5.70;;
21550;SDS011;10936;49.836;7.078;2023-04-20T05:17:48;9.90;;;5.60;;
21550;SDS011;10936;49.836;7.078;2023-04-20T05:20:14;11.53;;;5.43;;
21550;SDS011;10936;49.836;7.078;2023-04-20T05:22:39;7.63;;;5.13;;
21550;SDS011;10936;49.836;7.078;2023-04-20T05:25:05;11.37;;;5.53;;
21550;SDS011;10936;49.836;7.078;2023-04-20T05:27:31;9.27;;;5.17;;
21550;SDS011;10936;49.836;7.078;2023-04-20T05:29:57;9.90;;;5.23;;
21550;SDS011;10936;49.836;7.078;2023-04-20T05:32:23;10.07;;;5.50;;
21550;SDS011;10936;49.836;7.078;2023-04-20T05:34:48;9.87;;;5.03;;
21550;SDS011;10936;49.836;7.078;2023-04-20T05:37:14;7.63;;;5.53;;
21550;SDS011;10936;49.836;7.078;2023-04-20T05:39:41;11.50;;;5.80;;
21550;SDS011;10936;49.836;7.078;2023-04-20T05:42:06;8.77;;;5.27;;
21550;SDS011;10936;49.836;7.078;2023-04-20T05:44:32;10.83;;;6.13;;
21550;SDS011;10936;49.836;7.078;2023-04-20T05:46:58;8.60;;;5.47;;
21550;SDS011;10936;49.836;7.078;2023-04-20T05:49:23;13.17;;;5.80;;
21550;SDS011;10936;49.836;7.078;2023-04-20T05:51:49;10.10;;;5.37;;
21550;SDS011;10936;49.836;7.078;2023-04-20T05:54:15;11.57;;;5.70;;
21550;SDS011;10936;49.836;7.078;2023-04-20T05:56:41;10.90;;;6.10;;
21550;SDS011;10936;49.836;7.078;2023-04-20T05:59:06;10.63;;;6.27;;
21550;SDS011;10936;49.836;7.078;2023-04-20T06:01:33;14.03;;;6.70;;
21550;SDS011;10936;49.836;7.078;2023-04-20T06:03:58;14.60;;;6.90;;
21550;SDS011;10936;49.836;7.078;2023-04-20T06:06:24;12.27;;;6.57;;
21550;SDS011;10936;49.836;7.078;2023-04-20T06:08:50;10.33;;;6.70;;
21550;SDS011;10936;49.836;7.078;2023-04-20T06:11:17;12.13;;;7.83;;
21550;SDS011;10936;49.836;7.078;2023-04-20T06:13:42;14.90;;;6.70;;
21550;SDS011;10936;49.836;7.078;2023-04-20T06:16:08;11.23;;;7.17;;
21550;SDS011;10936;49.836;7.078;2023-04-20T06:18:34;14.37;;;7.50;;
21550;SDS011;10936;49.836;7.078;2023-04-20T06:21:01;13.97;;;7.60;;
21550;SDS011;10936;49.836;7.078;2023-04-20T06:23:27;14.00;;;7.90;;
21550;SDS011;10936;49.836;7.078;2023-04-20T06:25:53;15.27;;;8.37;;
21550;SDS011;10936;49.836;7.078;2023-04-20T06:28:18;9.23;;;6.90;;
21550;SDS011;10936;49.836;7.078;2023-04-20T06:30:44;10.77;;;7.40;;
21550;SDS011;10936;49.836;7.078;2023-04-20T06:33:09;12.83;;;7.83;;
21550;SDS011;10936;49.836;7.078;2023-04-20T06:35:40;11.07;;;7.60;;
21550;SDS011;10936;49.836;7.078;2023-04-20T06:38:06;11.37;;;7.63;;
21550;SDS011;10936;49.836;7.078;2023-04-20T06:40:32;13.57;;;8.00;;
21550;SDS011;10936;49.836;7.078;2023-04-20T06:42:58;18.17;;;7.23;;
21550;SDS011;10936;49.836;7.078;2023-04-20T06:45:23;13.27;;;7.10;;
21550;SDS011;10936;49.836;7.078;2023-04-20T06:47:49;11.60;;;7.70;;
21550;SDS011;10936;49.836;7.078;2023-04-20T06:50:14;12.27;;;7.43;;
21550;SDS011;10936;49.836;7.078;2023-04-20T06:52:40;12.70;;;7.50;;
21550;SDS011;10936;49.836;7.078;2023-04-20T06:55:06;12.93;;;7.77;;
21550;SDS011;10936;49.836;7.078;2023-04-20T06:57:32;16.63;;;8.00;;
21550;SDS011;10936;49.836;7.078;2023-04-20T06:59:58;13.67;;;8.27;;
21550;SDS011;10936;49.836;7.078;2023-04-20T07:02:24;14.40;;;8.73;;
21550;SDS011;10936;49.836;7.078;2023-04-20T07:04:49;11.33;;;7.83;;
21550;SDS011;10936;49.836;7.078;2023-04-20T07:07:15;10.80;;;7.70;;
21550;SDS011;10936;49.836;7.078;2023-04-20T07:09:41;11.87;;;8.33;;
21550;SDS011;10936;49.836;7.078;2023-04-20T07:12:06;12.40;;;8.40;;
21550;SDS011;10936;49.836;7.078;2023-04-20T07:14:32;14.43;;;8.43;;
21550;SDS011;10936;49.836;7.078;2023-04-20T07:16:58;12.83;;;8.10;;
21550;SDS011;10936;49.836;7.078;2023-04-20T07:19:23;16.10;;;9.00;;
21550;SDS011;10936;49.836;7.078;2023-04-20T07:21:49;11.90;;;8.60;;
21550;SDS011;10936;49.836;7.078;2023-04-20T07:24:14;18.67;;;9.47;;
21550;SDS011;10936;49.836;7.078;2023-04-20T07:26:40;12.87;;;8.30;;
21550;SDS011;10936;49.836;7.078;2023-04-20T07:29:05;11.97;;;8.40;;
21550;SDS011;10936;49.836;7.078;2023-04-20T07:31:31;15.17;;;8.73;;
21550;SDS011;10936;49.836;7.078;2023-04-20T07:33:56;15.27;;;9.20;;
21550;SDS011;10936;49.836;7.078;2023-04-20T07:36:22;13.70;;;9.33;;
21550;SDS011;10936;49.836;7.078;2023-04-20T07:38:48;14.77;;;9.30;;
21550;SDS011;10936;49.836;7.078;2023-04-20T07:41:13;17.53;;;9.73;;
21550;SDS011;10936;49.836;7.078;2023-04-20T07:43:39;14.03;;;9.30;;
21550;SDS011;10936;49.836;7.078;2023-04-20T07:46:05;15.27;;;9.50;;
21550;SDS011;10936;49.836;7.078;2023-04-20T07:48:32;17.50;;;9.20;;
21550;SDS011;10936;49.836;7.078;2023-04-20T07:50:58;13.57;;;8.77;;
21550;SDS011;10936;49.836;7.078;2023-04-20T07:53:24;14.30;;;9.20;;
21550;SDS011;10936;49.836;7.078;2023-04-20T07:55:50;15.27;;;9.60;;
21550;SDS011;10936;49.836;7.078;2023-04-20T07:58:16;13.03;;;8.47;;
21550;SDS011;10936;49.836;7.078;2023-04-20T08:00:44;11.07;;;8.87;;
21550;SDS011;10936;49.836;7.078;2023-04-20T08:03:10;15.27;;;8.30;;
21550;SDS011;10936;49.836;7.078;2023-04-20T08:05:36;16.80;;;9.00;;
21550;SDS011;10936;49.836;7.078;2023-04-20T08:08:02;13.70;;;8.50;;
21550;SDS011;10936;49.836;7.078;2023-04-20T08:10:28;13.43;;;9.27;;
21550;SDS011;10936;49.836;7.078;2023-04-20T08:12:53;13.47;;;8.73;;
21550;SDS011;10936;49.836;7.078;2023-04-20T08:15:19;13.20;;;8.87;;
21550;SDS011;10936;49.836;7.078;2023-04-20T08:17:45;13.87;;;9.30;;
21550;SDS011;10936;49.836;7.078;2023-04-20T08:20:10;11.70;;;8.87;;
21550;SDS011;10936;49.836;7.078;2023-04-20T08:22:36;10.97;;;7.97;;
21550;SDS011;10936;49.836;7.078;2023-04-20T08:25:03;11.47;;;8.23;;
21550;SDS011;10936;49.836;7.078;2023-04-20T08:27:29;11.10;;;6.93;;
21550;SDS011;10936;49.836;7.078;2023-04-20T08:29:55;8.27;;;6.70;;
21550;SDS011;10936;49.836;7.078;2023-04-20T08:32:21;6.97;;;5.93;;
21550;SDS011;10936;49.836;7.078;2023-04-20T08:34:48;6.67;;;5.73;;
21550;SDS011;10936;49.836;7.078;2023-04-20T08:37:14;6.67;;;5.77;;
21550;SDS011;10936;49.836;7.078;2023-04-20T08:39:41;9.03;;;6.03;;
21550;SDS011;10936;49.836;7.078;2023-04-20T08:42:06;8.33;;;6.83;;
21550;SDS011;10936;49.836;7.078;2023-04-20T08:44:32;10.87;;;7.63;;
21550;SDS011;10936;49.836;7.078;2023-04-20T08:46:57;7.17;;;6.13;;
21550;SDS011;10936;49.836;7.078;2023-04-20T08:49:23;10.47;;;7.47;;
21550;SDS011;10936;49.836;7.078;2023-04-20T08:51:53;12.73;;;7.70;;
21550;SDS011;10936;49.836;7.078;2023-04-20T08:54:19;9.80;;;7.50;;
21550;SDS011;10936;49.836;7.078;2023-04-20T08:56:45;10.13;;;7.37;;
21550;SDS011;10936;49.836;7.078;2023-04-20T08:59:11;11.07;;;7.97;;
21550;SDS011;10936;49.836;7.078;2023-04-20T09:01:38;11.77;;;8.73;;
21550;SDS011;10936;49.836;7.078;2023-04-20T09:04:15;12.43;;;8.13;;
21550;SDS011;10936;49.836;7.078;2023-04-20T09:06:52;11.30;;;8.50;;
21550;SDS011;10936;49.836;7.078;2023-04-20T09:09:20;10.63;;;8.30;;
21550;SDS011;10936;49.836;7.078;2023-04-20T09:11:46;14.87;;;9.20;;
21550;SDS011;10936;49.836;7.078;2023-04-20T09:14:23;12.50;;;8.63;;
21550;SDS011;10936;49.836;7.078;2023-04-20T09:16:49;11.37;;;8.13;;
21550;SDS011;10936;49.836;7.078;2023-04-20T09:19:23;11.60;;;8.67;;
21550;SDS011;10936;49.836;7.078;2023-04-20T09:21:49;12.90;;;8.87;;
21550;SDS011;10936;49.836;7.078;2023-04-20T09:24:19;10.43;;;8.83;;
21550;SDS011;10936;49.836;7.078;2023-04-20T09:26:46;13.37;;;9.30;;
21550;SDS011;10936;49.836;7.078;2023-04-20T09:29:18;12.00;;;9.43;;
21550;SDS011;10936;49.836;7.078;2023-04-20T09:31:46;12.43;;;8.00;;
21550;SDS011;10936;49.836;7.078;2023-04-20T09:34:12;16.20;;;9.00;;
21550;SDS011;10936;49.836;7.078;2023-04-20T09:39:08;15.57;;;9.63;;
21550;SDS011;10936;49.836;7.078;2023-04-20T09:41:35;13.77;;;9.43;;
21550;SDS011;10936;49.836;7.078;2023-04-20T09:44:02;15.90;;;10.27;;
21550;SDS011;10936;49.836;7.078;2023-04-20T09:46:28;12.40;;;9.93;;
21550;SDS011;10936;49.836;7.078;2023-04-20T09:48:58;14.67;;;9.57;;
21550;SDS011;10936;49.836;7.078;2023-04-20T09:51:25;15.30;;;9.67;;
21550;SDS011;10936;49.836;7.078;2023-04-20T09:53:52;13.43;;;9.50;;
21550;SDS011;10936;49.836;7.078;2023-04-20T09:56:22;11.87;;;8.50;;
21550;SDS011;10936;49.836;7.078;2023-04-20T09:58:49;13.07;;;8.67;;
21550;SDS011;10936;49.836;7.078;2023-04-20T10:01:15;12.83;;;8.53;;
21550;SDS011;10936;49.836;7.078;2023-04-20T10:03:42;12.67;;;9.67;;
21550;SDS011;10936;49.836;7.078;2023-04-20T10:06:28;11.97;;;9.30;;
21550;SDS011;10936;49.836;7.078;2023-04-20T10:08:56;13.60;;;8.97;;
21550;SDS011;10936;49.836;7.078;2023-04-20T10:11:33;15.10;;;9.27;;
21550;SDS011;10936;49.836;7.078;2023-04-20T10:14:22;13.60;;;8.80;;
21550;SDS011;10936;49.836;7.078;2023-04-20T10:16:57;14.07;;;8.73;;
21550;SDS011;10936;49.836;7.078;2023-04-20T10:19:34;13.43;;;8.47;;
21550;SDS011;10936;49.836;7.078;2023-04-20T10:22:04;13.27;;;9.07;;
21550;SDS011;10936;49.836;7.078;2023-04-20T10:24:30;15.27;;;9.23;;
21550;SDS011;10936;49.836;7.078;2023-04-20T10:26:57;17.23;;;9.93;;
21550;SDS011;10936;49.836;7.078;2023-04-20T10:29:23;13.70;;;9.17;;
21550;SDS011;10936;49.836;7.078;2023-04-20T10:31:49;12.60;;;9.23;;
21550;SDS011;10936;49.836;7.078;2023-04-20T10:34:15;10.37;;;8.60;;
21550;SDS011;10936;49.836;7.078;2023-04-20T10:36:43;11.10;;;8.10;;
21550;SDS011;10936;49.836;7.078;2023-04-20T10:39:15;12.80;;;9.17;;
21550;SDS011;10936;49.836;7.078;2023-04-20T10:41:50;10.20;;;8.33;;
21550;SDS011;10936;49.836;7.078;2023-04-20T10:44:20;9.77;;;7.67;;
21550;SDS011;10936;49.836;7.078;2023-04-20T10:46:49;10.57;;;8.43;;
21550;SDS011;10936;49.836;7.078;2023-04-20T10:49:16;12.17;;;8.10;;
21550;SDS011;10936;49.836;7.078;2023-04-20T10:51:45;11.67;;;8.40;;
21550;SDS011;10936;49.836;7.078;2023-04-20T10:54:12;12.17;;;8.77;;
21550;SDS011;10936;49.836;7.078;2023-04-20T10:59:11;11.37;;;8.33;;
21550;SDS011;10936;49.836;7.078;2023-04-20T11:01:38;11.50;;;8.30;;
21550;SDS011;10936;49.836;7.078;2023-04-20T11:04:05;11.17;;;8.23;;
21550;SDS011;10936;49.836;7.078;2023-04-20T11:06:31;11.50;;;7.30;;
21550;SDS011;10936;49.836;7.078;2023-04-20T11:08:57;9.73;;;7.10;;
21550;SDS011;10936;49.836;7.078;2023-04-20T11:11:23;9.60;;;7.70;;
21550;SDS011;10936;49.836;7.078;2023-04-20T11:14:09;12.47;;;8.30;;
21550;SDS011;10936;49.836;7.078;2023-04-20T11:16:35;11.63;;;8.17;;
21550;SDS011;10936;49.836;7.078;2023-04-20T11:19:02;11.03;;;7.43;;
21550;SDS011;10936;49.836;7.078;2023-04-20T11:21:38;10.97;;;7.37;;
21550;SDS011;10936;49.836;7.078;2023-04-20T11:24:18;13.67;;;7.10;;
21550;SDS011;10936;49.836;7.078;2023-04-20T11:26:57;9.77;;;7.37;;
21550;SDS011;10936;49.836;7.078;2023-04-20T11:29:27;10.20;;;7.67;;
21550;SDS011;10936;49.836;7.078;2023-04-20T11:32:01;12.00;;;7.37;;
21550;SDS011;10936;49.836;7.078;2023-04-20T11:34:29;9.10;;;6.77;;
21550;SDS011;10936;49.836;7.078;2023-04-20T11:36:56;11.00;;;8.93;;
21550;SDS011;10936;49.836;7.078;2023-04-20T11:39:28;15.60;;;8.70;;
21550;SDS011;10936;49.836;7.078;2023-04-20T11:41:54;8.17;;;6.77;;
21550;SDS011;10936;49.836;7.078;2023-04-20T11:44:23;8.57;;;6.90;;
21550;SDS011;10936;49.836;7.078;2023-04-20T11:46:49;10.17;;;7.40;;
21550;SDS011;10936;49.836;7.078;2023-04-20T11:49:18;11.70;;;7.23;;
21550;SDS011;10936;49.836;7.078;2023-04-20T11:51:45;8.77;;;6.93;;
21550;SDS011;10936;49.836;7.078;2023-04-20T11:54:11;13.53;;;9.33;;
21550;SDS011;10936;49.836;7.078;2023-04-20T11:56:38;11.87;;;8.00;;
21550;SDS011;10936;49.836;7.078;2023-04-20T11:59:05;10.03;;;7.57;;
21550;SDS011;10936;49.836;7.078;2023-04-20T12:01:31;12.50;;;8.37;;
21550;SDS011;10936;49.836;7.078;2023-04-20T12:03:57;9.07;;;7.40;;
21550;SDS011;10936;49.836;7.078;2023-04-20T12:06:25;11.47;;;7.83;;
21550;SDS011;10936;49.836;7.078;2023-04-20T12:08:55;11.03;;;8.40;;
21550;SDS011;10936;49.836;7.078;2023-04-20T12:11:21;11.00;;;7.93;;
21550;SDS011;10936;49.836;7.078;2023-04-20T12:13:47;12.67;;;7.83;;
21550;SDS011;10936;49.836;7.078;2023-04-20T12:16:13;12.07;;;8.53;;
21550;SDS011;10936;49.836;7.078;2023-04-20T12:18:38;12.57;;;8.60;;
21550;SDS011;10936;49.836;7.078;2023-04-20T12:21:04;14.77;;;8.67;;
21550;SDS011;10936;49.836;7.078;2023-04-20T12:23:30;10.00;;;7.97;;
21550;SDS011;10936;49.836;7.078;2023-04-20T12:25:57;11.77;;;7.67;;
21550;SDS011;10936;49.836;7.078;2023-04-20T12:28:22;19.63;;;8.27;;
21550;SDS011;10936;49.836;7.078;2023-04-20T12:30:48;10.47;;;7.40;;
21550;SDS011;10936;49.836;7.078;2023-04-20T12:33:13;10.77;;;7.50;;
21550;SDS011;10936;49.836;7.078;2023-04-20T12:35:39;13.13;;;7.83;;
21550;SDS011;10936;49.836;7.078;2023-04-20T12:38:05;9.20;;;7.00;;
21550;SDS011;10936;49.836;7.078;2023-04-20T12:40:31;13.37;;;7.10;;
21550;SDS011;10936;49.836;7.078;2023-04-20T12:42:57;9.17;;;7.80;;
21550;SDS011;10936;49.836;7.078;2023-04-20T12:45:22;10.07;;;7.10;;
21550;SDS011;10936;49.836;7.078;2023-04-20T12:47:48;12.77;;;7.20;;
21550;SDS011;10936;49.836;7.078;2023-04-20T12:50:13;10.10;;;7.47;;
21550;SDS011;10936;49.836;7.078;2023-04-20T12:52:39;12.80;;;6.93;;
21550;SDS011;10936;49.836;7.078;2023-04-20T12:55:05;11.33;;;7.20;;
21550;SDS011;10936;49.836;7.078;2023-04-20T12:57:31;11.03;;;6.87;;
21550;SDS011;10936;49.836;7.078;2023-04-20T12:59:57;15.13;;;7.53;;
21550;SDS011;10936;49.836;7.078;2023-04-20T13:02:23;11.50;;;7.00;;
21550;SDS011;10936;49.836;7.078;2023-04-20T13:04:50;10.00;;;7.40;;
21550;SDS011;10936;49.836;7.078;2023-04-20T13:07:16;13.30;;;7.77;;
21550;SDS011;10936;49.836;7.078;2023-04-20T13:09:42;12.07;;;7.80;;
21550;SDS011;10936;49.836;7.078;2023-04-20T13:12:08;10.47;;;7.60;;
21550;SDS011;10936;49.836;7.078;2023-04-20T13:14:33;9.43;;;7.57;;
21550;SDS011;10936;49.836;7.078;2023-04-20T13:16:59;9.47;;;7.33;;
21550;SDS011;10936;49.836;7.078;2023-04-20T13:19:28;13.37;;;7.60;;
21550;SDS011;10936;49.836;7.078;2023-04-20T13:21:54;10.83;;;7.43;;
21550;SDS011;10936;49.836;7.078;2023-04-20T13:24:20;11.90;;;7.70;;
21550;SDS011;10936;49.836;7.078;2023-04-20T13:26:45;11.20;;;7.47;;
21550;SDS011;10936;49.836;7.078;2023-04-20T13:29:11;10.73;;;7.87;;
21550;SDS011;10936;49.836;7.078;2023-04-20T13:31:36;10.50;;;7.80;;
21550;SDS011;10936;49.836;7.078;2023-04-20T13:34:02;12.70;;;8.07;;
21550;SDS011;10936;49.836;7.078;2023-04-20T13:36:28;10.10;;;7.80;;
21550;SDS011;10936;49.836;7.078;2023-04-20T13:38:54;12.70;;;7.43;;
21550;SDS011;10936;49.836;7.078;2023-04-20T13:41:20;9.20;;;6.73;;
21550;SDS011;10936;49.836;7.078;2023-04-20T13:43:47;11.03;;;7.30;;
21550;SDS011;10936;49.836;7.078;2023-04-20T13:46:13;8.77;;;6.43;;
21550;SDS011;10936;49.836;7.078;2023-04-20T13:48:40;9.53;;;7.37;;
21550;SDS011;10936;49.836;7.078;2023-04-20T13:51:05;9.57;;;7.57;;
21550;SDS011;10936;49.836;7.078;2023-04-20T13:53:31;9.70;;;7.67;;
21550;SDS011;10936;49.836;7.078;2023-04-20T13:55:57;10.97;;;7.87;;
21550;SDS011;10936;49.836;7.078;2023-04-20T13:58:22;11.73;;;8.20;;
21550;SDS011;10936;49.836;7.078;2023-04-20T14:00:48;11.03;;;7.53;;
21550;SDS011;10936;49.836;7.078;2023-04-20T14:03:13;11.30;;;7.67;;
21550;SDS011;10936;49.836;7.078;2023-04-20T14:05:39;11.83;;;9.30;;
21550;SDS011;10936;49.836;7.078;2023-04-20T14:08:05;12.83;;;9.13;;
21550;SDS011;10936;49.836;7.078;2023-04-20T14:10:31;14.10;;;9.20;;
21550;SDS011;10936;49.836;7.078;2023-04-20T14:12:58;14.07;;;9.43;;
21550;SDS011;10936;49.836;7.078;2023-04-20T14:15:24;16.07;;;10.17;;
21550;SDS011;10936;49.836;7.078;2023-04-20T14:17:50;14.77;;;10.07;;
21550;SDS011;10936;49.836;7.078;2023-04-20T14:20:16;17.03;;;10.50;;
21550;SDS011;10936;49.836;7.078;2023-04-20T14:22:41;15.17;;;9.83;;
21550;SDS011;10936;49.836;7.078;2023-04-20T14:25:07;16.63;;;10.27;;
21550;SDS011;10936;49.836;7.078;2023-04-20T14:27:33;13.57;;;9.53;;
21550;SDS011;10936;49.836;7.078;2023-04-20T14:29:59;12.57;;;8.53;;
21550;SDS011;10936;49.836;7.078;2023-04-20T14:32:25;12.47;;;8.90;;
21550;SDS011;10936;49.836;7.078;2023-04-20T14:34:51;12.23;;;8.20;;
21550;SDS011;10936;49.836;7.078;2023-04-20T14:37:17;11.20;;;7.93;;
21550;SDS011;10936;49.836;7.078;2023-04-20T14:39:42;12.70;;;7.73;;
21550;SDS011;10936;49.836;7.078;2023-04-20T14:42:08;11.83;;;7.90;;
21550;SDS011;10936;49.836;7.078;2023-04-20T14:44:33;11.73;;;7.10;;
21550;SDS011;10936;49.836;7.078;2023-04-20T14:46:59;12.40;;;8.23;;
21550;SDS011;10936;49.836;7.078;2023-04-20T14:49:25;16.37;;;8.23;;
21550;SDS011;10936;49.836;7.078;2023-04-20T14:51:51;10.43;;;7.97;;
21550;SDS011;10936;49.836;7.078;2023-04-20T14:54:16;10.23;;;7.13;;
21550;SDS011;10936;49.836;7.078;2023-04-20T14:56:42;12.70;;;6.87;;
21550;SDS011;10936;49.836;7.078;2023-04-20T14:59:08;11.00;;;7.10;;
21550;SDS011;10936;49.836;7.078;2023-04-20T15:01:33;10.43;;;7.37;;
21550;SDS011;10936;49.836;7.078;2023-04-20T15:03:59;9.77;;;7.37;;
21550;SDS011;10936;49.836;7.078;2023-04-20T15:06:25;10.67;;;7.07;;
21550;SDS011;10936;49.836;7.078;2023-04-20T15:08:53;9.57;;;6.97;;
21550;SDS011;10936;49.836;7.078;2023-04-20T15:11:20;11.63;;;8.17;;
21550;SDS011;10936;49.836;7.078;2023-04-20T15:13:46;10.57;;;7.67;;
21550;SDS011;10936;49.836;7.078;2023-04-20T15:16:13;11.83;;;8.07;;
21550;SDS011;10936;49.836;7.078;2023-04-20T15:18:38;11.90;;;8.10;;
21550;SDS011;10936;49.836;7.078;2023-04-20T15:21:04;11.97;;;7.83;;
21550;SDS011;10936;49.836;7.078;2023-04-20T15:23:32;11.37;;;7.60;;
21550;SDS011;10936;49.836;7.078;2023-04-20T15:25:58;12.00;;;8.10;;
21550;SDS011;10936;49.836;7.078;2023-04-20T15:28:23;10.57;;;8.10;;
21550;SDS011;10936;49.836;7.078;2023-04-20T15:30:49;12.93;;;7.97;;
21550;SDS011;10936;49.836;7.078;2023-04-20T15:33:15;9.10;;;7.20;;
21550;SDS011;10936;49.836;7.078;2023-04-20T15:35:41;9.73;;;7.10;;
21550;SDS011;10936;49.836;7.078;2023-04-20T15:38:06;11.27;;;7.23;;
21550;SDS011;10936;49.836;7.078;2023-04-20T15:40:33;10.80;;;6.90;;
21550;SDS011;10936;49.836;7.078;2023-04-20T15:42:59;10.87;;;7.63;;
21550;SDS011;10936;49.836;7.078;2023-04-20T15:45:26;10.50;;;7.73;;
21550;SDS011;10936;49.836;7.078;2023-04-20T15:47:53;12.80;;;8.20;;
21550;SDS011;10936;49.836;7.078;2023-04-20T15:50:19;12.73;;;7.73;;
21550;SDS011;10936;49.836;7.078;2023-04-20T15:52:45;8.13;;;6.43;;
21550;SDS011;10936;49.836;7.078;2023-04-20T15:55:13;5.93;;;4.83;;
21550;SDS011;10936;49.836;7.078;2023-04-20T15:57:39;6.77;;;5.17;;
21550;SDS011;10936;49.836;7.078;2023-04-20T16:00:05;8.37;;;6.47;;
21550;SDS011;10936;49.836;7.078;2023-04-20T16:02:33;13.07;;;8.33;;
21550;SDS011;10936;49.836;7.078;2023-04-20T16:04:59;15.93;;;8.90;;
21550;SDS011;10936;49.836;7.078;2023-04-20T16:07:25;12.63;;;9.37;;
21550;SDS011;10936;49.836;7.078;2023-04-20T16:09:50;14.07;;;10.43;;
21550;SDS011;10936;49.836;7.078;2023-04-20T16:12:16;20.10;;;12.33;;
21550;SDS011;10936;49.836;7.078;2023-04-20T16:14:42;17.43;;;11.07;;
21550;SDS011;10936;49.836;7.078;2023-04-20T16:17:07;18.93;;;12.27;;
21550;SDS011;10936;49.836;7.078;2023-04-20T16:19:33;20.10;;;13.57;;
21550;SDS011;10936;49.836;7.078;2023-04-20T16:21:59;21.40;;;13.80;;
21550;SDS011;10936;49.836;7.078;2023-04-20T16:24:24;25.83;;;15.13;;
21550;SDS011;10936;49.836;7.078;2023-04-20T16:26:50;22.23;;;14.70;;
21550;SDS011;10936;49.836;7.078;2023-04-20T16:29:15;24.30;;;15.10;;
21550;SDS011;10936;49.836;7.078;2023-04-20T16:31:41;29.23;;;16.83;;
21550;SDS011;10936;49.836;7.078;2023-04-20T16:34:06;26.13;;;17.17;;
21550;SDS011;10936;49.836;7.078;2023-04-20T16:36:33;29.00;;;18.73;;
21550;SDS011;10936;49.836;7.078;2023-04-20T16:38:58;28.50;;;18.00;;
21550;SDS011;10936;49.836;7.078;2023-04-20T16:41:29;28.33;;;17.63;;
21550;SDS011;10936;49.836;7.078;2023-04-20T16:43:55;28.40;;;16.87;;
21550;SDS011;10936;49.836;7.078;2023-04-20T16:46:21;25.50;;;16.90;;
21550;SDS011;10936;49.836;7.078;2023-04-20T16:48:46;27.23;;;15.83;;
21550;SDS011;10936;49.836;7.078;2023-04-20T16:51:12;24.73;;;16.27;;
21550;SDS011;10936;49.836;7.078;2023-04-20T16:53:38;27.50;;;16.03;;
21550;SDS011;10936;49.836;7.078;2023-04-20T16:56:03;29.00;;;15.90;;
21550;SDS011;10936;49.836;7.078;2023-04-20T16:58:29;29.17;;;15.57;;
21550;SDS011;10936;49.836;7.078;2023-04-20T17:00:55;23.37;;;15.57;;
21550;SDS011;10936;49.836;7.078;2023-04-20T17:03:21;21.73;;;13.97;;
21550;SDS011;10936;49.836;7.078;2023-04-20T17:05:46;21.07;;;13.83;;
21550;SDS011;10936;49.836;7.078;2023-04-20T17:08:12;18.43;;;14.00;;
21550;SDS011;10936;49.836;7.078;2023-04-20T17:10:37;26.73;;;14.83;;
21550;SDS011;10936;49.836;7.078;2023-04-20T17:13:03;19.20;;;13.30;;
21550;SDS011;10936;49.836;7.078;2023-04-20T17:15:29;18.83;;;12.43;;
21550;SDS011;10936;49.836;7.078;2023-04-20T17:17:55;19.20;;;13.17;;
21550;SDS011;10936;49.836;7.078;2023-04-20T17:20:21;20.63;;;13.30;;
21550;SDS011;10936;49.836;7.078;2023-04-20T17:22:46;21.70;;;13.27;;
21550;SDS011;10936;49.836;7.078;2023-04-20T17:25:12;16.67;;;12.70;;
21550;SDS011;10936;49.836;7.078;2023-04-20T17:27:39;18.00;;;13.07;;
21550;SDS011;10936;49.836;7.078;2023-04-20T17:30:05;16.90;;;12.47;;
21550;SDS011;10936;49.836;7.078;2023-04-20T17:32:31;17.90;;;12.60;;
21550;SDS011;10936;49.836;7.078;2023-04-20T17:34:57;20.57;;;12.57;;
21550;SDS011;10936;49.836;7.078;2023-04-20T17:37:23;16.20;;;12.23;;
21550;SDS011;10936;49.836;7.078;2023-04-20T17:39:48;17.33;;;12.17;;
21550;SDS011;10936;49.836;7.078;2023-04-20T17:42:15;18.60;;;12.37;;
21550;SDS011;10936;49.836;7.078;2023-04-20T17:44:41;17.60;;;11.73;;
21550;SDS011;10936;49.836;7.078;2023-04-20T17:47:07;18.90;;;10.90;;
21550;SDS011;10936;49.836;7.078;2023-04-20T17:49:33;16.13;;;11.73;;
21550;SDS011;10936;49.836;7.078;2023-04-20T17:52:00;18.00;;;11.37;;
21550;SDS011;10936;49.836;7.078;2023-04-20T17:54:26;15.60;;;11.63;;
21550;SDS011;10936;49.836;7.078;2023-04-20T17:56:53;19.00;;;11.57;;
21550;SDS011;10936;49.836;7.078;2023-04-20T17:59:18;17.87;;;11.57;;
21550;SDS011;10936;49.836;7.078;2023-04-20T18:01:44;19.60;;;11.57;;
21550;SDS011;10936;49.836;7.078;2023-04-20T18:04:10;17.40;;;12.10;;
21550;SDS011;10936;49.836;7.078;2023-04-20T18:06:36;19.37;;;12.37;;
21550;SDS011;10936;49.836;7.078;2023-04-20T18:09:01;18.43;;;11.13;;
21550;SDS011;10936;49.836;7.078;2023-04-20T18:11:29;18.60;;;11.63;;
21550;SDS011;10936;49.836;7.078;2023-04-20T18:13:55;20.07;;;11.83;;
21550;SDS011;10936;49.836;7.078;2023-04-20T18:16:20;17.80;;;12.50;;
21550;SDS011;10936;49.836;7.078;2023-04-20T18:18:46;18.87;;;11.90;;
21550;SDS011;10936;49.836;7.078;2023-04-20T18:21:12;18.73;;;12.57;;
21550;SDS011;10936;49.836;7.078;2023-04-20T18:23:38;17.77;;;11.93;;
21550;SDS011;10936;49.836;7.078;2023-04-20T18:26:04;17.30;;;12.00;;
21550;SDS011;10936;49.836;7.078;2023-04-20T18:28:29;20.23;;;12.00;;
21550;SDS011;10936;49.836;7.078;2023-04-20T18:30:55;21.33;;;13.73;;
21550;SDS011;10936;49.836;7.078;2023-04-20T18:33:21;24.20;;;14.73;;
21550;SDS011;10936;49.836;7.078;2023-04-20T18:35:46;21.90;;;14.53;;
21550;SDS011;10936;49.836;7.078;2023-04-20T18:38:12;25.20;;;15.43;;
21550;SDS011;10936;49.836;7.078;2023-04-20T18:40:38;24.07;;;14.83;;
21550;SDS011;10936;49.836;7.078;2023-04-20T18:43:03;19.87;;;13.90;;
21550;SDS011;10936;49.836;7.078;2023-04-20T18:45:30;18.53;;;13.10;;
21550;SDS011;10936;49.836;7.078;2023-04-20T18:47:55;20.97;;;14.13;;
21550;SDS011;10936;49.836;7.078;2023-04-20T18:50:22;19.07;;;13.60;;
21550;SDS011;10936;49.836;7.078;2023-04-20T18:52:48;19.90;;;14.20;;
21550;SDS011;10936;49.836;7.078;2023-04-20T18:55:13;19.87;;;13.47;;
21550;SDS011;10936;49.836;7.078;2023-04-20T18:57:39;19.10;;;12.80;;
21550;SDS011;10936;49.836;7.078;2023-04-20T19:00:05;22.47;;;12.37;;
21550;SDS011;10936;49.836;7.078;2023-04-20T19:02:33;18.13;;;12.07;;
21550;SDS011;10936;49.836;7.078;2023-04-20T19:04:58;16.87;;;12.47;;
21550;SDS011;10936;49.836;7.078;2023-04-20T19:07:24;18.97;;;11.87;;
21550;SDS011;10936;49.836;7.078;2023-04-20T19:09:50;19.63;;;12.83;;
21550;SDS011;10936;49.836;7.078;2023-04-20T19:12:16;17.33;;;12.00;;
21550;SDS011;10936;49.836;7.078;2023-04-20T19:14:41;17.70;;;12.10;;
21550;SDS011;10936;49.836;7.078;2023-04-20T19:17:07;15.30;;;11.50;;
21550;SDS011;10936;49.836;7.078;2023-04-20T19:19:33;18.07;;;12.33;;
21550;SDS011;10936;49.836;7.078;2023-04-20T19:21:58;16.93;;;12.27;;
21550;SDS011;10936;49.836;7.078;2023-04-20T19:24:25;16.80;;;11.57;;
21550;SDS011;10936;49.836;7.078;2023-04-20T19:26:51;15.73;;;11.97;;
21550;SDS011;10936;49.836;7.078;2023-04-20T19:29:17;17.80;;;12.73;;
21550;SDS011;10936;49.836;7.078;2023-04-20T19:31:43;16.43;;;12.43;;
21550;SDS011;10936;49.836;7.078;2023-04-20T19:34:08;17.57;;;11.40;;